sensor_id;sensor_type;location;lat;lon;timestamp;P1;durP1;ratioP1;P2;durP2;ratioP2
24681;SDS011;12802;53.390;-2.328;2024-01-25T00:01:58;42.42;;;8.13;;
24681;SDS011;12802;53.390;-2.328;2024-01-25T00:04:24;44.45;;;8.63;;
24681;SDS011;12802;53.390;-2.328;2024-01-25T00:06:50;38.65;;;7.50;;
24681;SDS011;12802;53.390;-2.328;2024-01-25T00:09:16;36.05;;;7.55;;
24681;SDS011;12802;53.390;-2.328;2024-01-25T00:11:43;48.58;;;8.65;;
24681;SDS011;12802;53.390;-2.328;2024-01-25T00:14:09;42.50;;;8.27;;
24681;SDS011;12802;53.390;-2.328;2024-01-25T00:16:35;40.40;;;7.88;;
24681;SDS011;12802;53.390;-2.328;2024-01-25T00:19:01;47.70;;;8.13;;
24681;SDS011;12802;53.390;-2.328;2024-01-25T00:21:27;36.72;;;8.13;;
24681;SDS011;12802;53.390;-2.328;2024-01-25T00:23:53;40.13;;;7.75;;
24681;SDS011;12802;53.390;-2.328;2024-01-25T00:26:20;29.65;;;7.13;;
24681;SDS011;12802;53.390;-2.328;2024-01-25T00:28:46;38.92;;;7.75;;
24681;SDS011;12802;53.390;-2.328;2024-01-25T00:31:12;37.58;;;7.30;;
24681;SDS011;12802;53.390;-2.328;2024-01-25T00:33:38;35.03;;;7.97;;
24681;SDS011;12802;53.390;-2.328;2024-01-25T00:36:04;39.35;;;7.25;;
24681;SDS011;12802;53.390;-2.328;2024-01-25T00:38:31;41.88;;;8.20;;
24681;SDS011;12802;53.390;-2.328;2024-01-25T00:40:57;36.92;;;7.13;;
24681;SDS011;12802;53.390;-2.328;2024-01-25T00:43:23;47.35;;;8.82;;
24681;SDS011;12802;53.390;-2.328;2024-01-25T00:45:50;39.50;;;8.02;;
24681;SDS011;12802;53.390;-2.328;2024-01-25T00:48:16;47.80;;;7.90;;
24681;SDS011;12802;53.390;-2.328;2024-01-25T00:50:42;30.10;;;6.65;;
24681;SDS011;12802;53.390;-2.328;2024-01-25T00:53:09;33.13;;;6.95;;
24681;SDS011;12802;53.390;-2.328;2024-01-25T00:55:35;42.80;;;7.65;;
24681;SDS011;12802;53.390;-2.328;2024-01-25T00:58:01;46.70;;;7.88;;
24681;SDS011;12802;53.390;-2.328;2024-01-25T01:00:28;40.47;;;7.85;;
24681;SDS011;12802;53.390;-2.328;2024-01-25T01:02:54;49.15;;;8.82;;
24681;SDS011;12802;53.390;-2.328;2024-01-25T01:05:21;36.75;;;7.05;;
24681;SDS011;12802;53.390;-2.328;2024-01-25T01:07:48;52.53;;;8.60;;
24681;SDS011;12802;53.390;-2.328;2024-01-25T01:10:14;47.97;;;8.13;;
24681;SDS011;12802;53.390;-2.328;2024-01-25T01:12:40;37.88;;;7.45;;
24681;SDS011;12802;53.390;-2.328;2024-01-25T01:15:06;38.78;;;7.15;;
24681;SDS011;12802;53.390;-2.328;2024-01-25T01:17:33;45.92;;;8.63;;
24681;SDS011;12802;53.390;-2.328;2024-01-25T01:19:59;44.58;;;7.80;;
24681;SDS011;12802;53.390;-2.328;2024-01-25T01:22:25;51.42;;;9.35;;
24681;SDS011;12802;53.390;-2.328;2024-01-25T01:24:51;38.03;;;7.57;;
24681;SDS011;12802;53.390;-2.328;2024-01-25T01:27:17;38.13;;;7.70;;
24681;SDS011;12802;53.390;-2.328;2024-01-25T01:29:46;51.90;;;8.23;;
24681;SDS011;12802;53.390;-2.328;2024-01-25T01:32:12;50.58;;;8.48;;
24681;SDS011;12802;53.390;-2.328;2024-01-25T01:38:01;42.28;;;7.50;;
24681;SDS011;12802;53.390;-2.328;2024-01-25T01:40:27;43.70;;;7.15;;
24681;SDS011;12802;53.390;-2.328;2024-01-25T01:43:00;39.08;;;7.75;;
24681;SDS011;12802;53.390;-2.328;2024-01-25T01:45:27;40.70;;;7.47;;
24681;SDS011;12802;53.390;-2.328;2024-01-25T01:47:54;34.70;;;6.72;;
24681;SDS011;12802;53.390;-2.328;2024-01-25T01:50:20;34.95;;;8.00;;
24681;SDS011;12802;53.390;-2.328;2024-01-25T01:52:47;47.88;;;8.15;;
24681;SDS011;12802;53.390;-2.328;2024-01-25T01:55:14;34.35;;;6.63;;
24681;SDS011;12802;53.390;-2.328;2024-01-25T01:57:40;45.90;;;7.53;;
24681;SDS011;12802;53.390;-2.328;2024-01-25T02:00:08;31.08;;;6.82;;
24681;SDS011;12802;53.390;-2.328;2024-01-25T02:02:37;39.05;;;7.43;;
24681;SDS011;12802;53.390;-2.328;2024-01-25T02:05:04;35.63;;;6.57;;
24681;SDS011;12802;53.390;-2.328;2024-01-25T02:07:31;48.80;;;7.40;;
24681;SDS011;12802;53.390;-2.328;2024-01-25T02:09:57;33.65;;;6.43;;
24681;SDS011;12802;53.390;-2.328;2024-01-25T02:12:23;38.15;;;6.68;;
24681;SDS011;12802;53.390;-2.328;2024-01-25T02:14:50;38.70;;;7.35;;
24681;SDS011;12802;53.390;-2.328;2024-01-25T02:17:16;27.77;;;6.07;;
24681;SDS011;12802;53.390;-2.328;2024-01-25T02:19:42;37.70;;;7.25;;
24681;SDS011;12802;53.390;-2.328;2024-01-25T02:22:09;36.83;;;6.65;;
24681;SDS011;12802;53.390;-2.328;2024-01-25T02:24:35;37.70;;;6.70;;
24681;SDS011;12802;53.390;-2.328;2024-01-25T02:27:01;35.10;;;6.80;;
24681;SDS011;12802;53.390;-2.328;2024-01-25T02:29:31;35.63;;;6.13;;
24681;SDS011;12802;53.390;-2.328;2024-01-25T02:31:57;47.33;;;6.93;;
24681;SDS011;12802;53.390;-2.328;2024-01-25T02:34:23;48.20;;;7.30;;
24681;SDS011;12802;53.390;-2.328;2024-01-25T02:36:49;36.83;;;6.63;;
24681;SDS011;12802;53.390;-2.328;2024-01-25T02:39:16;40.63;;;7.32;;
24681;SDS011;12802;53.390;-2.328;2024-01-25T02:41:42;35.45;;;6.82;;
24681;SDS011;12802;53.390;-2.328;2024-01-25T02:44:08;41.75;;;7.63;;
24681;SDS011;12802;53.390;-2.328;2024-01-25T02:46:34;33.50;;;7.28;;
24681;SDS011;12802;53.390;-2.328;2024-01-25T02:49:00;37.22;;;6.57;;
24681;SDS011;12802;53.390;-2.328;2024-01-25T02:51:27;42.33;;;7.80;;
24681;SDS011;12802;53.390;-2.328;2024-01-25T02:53:53;41.15;;;7.13;;
24681;SDS011;12802;53.390;-2.328;2024-01-25T02:56:19;39.08;;;8.02;;
24681;SDS011;12802;53.390;-2.328;2024-01-25T02:58:45;30.75;;;6.32;;
24681;SDS011;12802;53.390;-2.328;2024-01-25T03:01:11;38.75;;;7.30;;
24681;SDS011;12802;53.390;-2.328;2024-01-25T03:03:37;31.65;;;7.10;;
24681;SDS011;12802;53.390;-2.328;2024-01-25T03:06:05;38.15;;;6.95;;
24681;SDS011;12802;53.390;-2.328;2024-01-25T03:08:31;34.63;;;6.60;;
24681;SDS011;12802;53.390;-2.328;2024-01-25T03:10:57;39.30;;;6.00;;
24681;SDS011;12802;53.390;-2.328;2024-01-25T03:13:24;31.35;;;6.10;;
24681;SDS011;12802;53.390;-2.328;2024-01-25T03:15:50;34.30;;;6.60;;
24681;SDS011;12802;53.390;-2.328;2024-01-25T03:18:16;35.47;;;6.88;;
24681;SDS011;12802;53.390;-2.328;2024-01-25T03:20:42;35.83;;;6.35;;
24681;SDS011;12802;53.390;-2.328;2024-01-25T03:23:08;42.28;;;7.05;;
24681;SDS011;12802;53.390;-2.328;2024-01-25T03:25:34;34.08;;;6.80;;
24681;SDS011;12802;53.390;-2.328;2024-01-25T03:28:01;46.38;;;8.32;;
24681;SDS011;12802;53.390;-2.328;2024-01-25T03:30:27;37.00;;;7.13;;
24681;SDS011;12802;53.390;-2.328;2024-01-25T03:32:53;35.25;;;6.53;;
24681;SDS011;12802;53.390;-2.328;2024-01-25T03:35:19;35.75;;;6.22;;
24681;SDS011;12802;53.390;-2.328;2024-01-25T03:37:46;37.55;;;6.78;;
24681;SDS011;12802;53.390;-2.328;2024-01-25T03:40:12;35.60;;;6.13;;
24681;SDS011;12802;53.390;-2.328;2024-01-25T03:42:38;35.58;;;6.90;;
24681;SDS011;12802;53.390;-2.328;2024-01-25T03:45:05;39.47;;;7.00;;
24681;SDS011;12802;53.390;-2.328;2024-01-25T03:47:32;45.60;;;7.35;;
24681;SDS011;12802;53.390;-2.328;2024-01-25T03:49:58;46.53;;;7.13;;
24681;SDS011;12802;53.390;-2.328;2024-01-25T03:52:25;46.42;;;7.28;;
24681;SDS011;12802;53.390;-2.328;2024-01-25T03:54:55;46.38;;;7.90;;
24681;SDS011;12802;53.390;-2.328;2024-01-25T03:57:21;46.80;;;7.57;;
24681;SDS011;12802;53.390;-2.328;2024-01-25T03:59:47;31.95;;;6.53;;
24681;SDS011;12802;53.390;-2.328;2024-01-25T04:02:13;33.88;;;6.53;;
24681;SDS011;12802;53.390;-2.328;2024-01-25T04:04:40;37.67;;;7.82;;
24681;SDS011;12802;53.390;-2.328;2024-01-25T04:07:06;36.72;;;6.25;;
24681;SDS011;12802;53.390;-2.328;2024-01-25T04:09:32;37.30;;;7.55;;
24681;SDS011;12802;53.390;-2.328;2024-01-25T04:11:59;44.28;;;7.25;;
24681;SDS011;12802;53.390;-2.328;2024-01-25T04:14:25;33.38;;;7.10;;
24681;SDS011;12802;53.390;-2.328;2024-01-25T04:16:51;44.05;;;7.93;;
24681;SDS011;12802;53.390;-2.328;2024-01-25T04:19:18;31.88;;;6.88;;
24681;SDS011;12802;53.390;-2.328;2024-01-25T04:21:44;38.97;;;6.53;;
24681;SDS011;12802;53.390;-2.328;2024-01-25T04:24:10;45.60;;;6.57;;
24681;SDS011;12802;53.390;-2.328;2024-01-25T04:26:36;41.75;;;7.63;;
24681;SDS011;12802;53.390;-2.328;2024-01-25T04:29:03;36.08;;;6.45;;
24681;SDS011;12802;53.390;-2.328;2024-01-25T04:31:31;33.22;;;7.38;;
24681;SDS011;12802;53.390;-2.328;2024-01-25T04:33:57;34.47;;;6.72;;
24681;SDS011;12802;53.390;-2.328;2024-01-25T04:36:23;36.75;;;6.40;;
24681;SDS011;12802;53.390;-2.328;2024-01-25T04:38:49;34.25;;;7.00;;
24681;SDS011;12802;53.390;-2.328;2024-01-25T04:41:15;28.52;;;6.38;;
24681;SDS011;12802;53.390;-2.328;2024-01-25T04:43:42;34.67;;;7.07;;
24681;SDS011;12802;53.390;-2.328;2024-01-25T04:46:09;41.85;;;7.43;;
24681;SDS011;12802;53.390;-2.328;2024-01-25T04:48:35;27.73;;;5.95;;
24681;SDS011;12802;53.390;-2.328;2024-01-25T04:51:01;36.90;;;5.78;;
24681;SDS011;12802;53.390;-2.328;2024-01-25T04:53:28;45.63;;;8.00;;
24681;SDS011;12802;53.390;-2.328;2024-01-25T04:55:54;31.77;;;6.20;;
24681;SDS011;12802;53.390;-2.328;2024-01-25T04:58:21;33.88;;;6.72;;
24681;SDS011;12802;53.390;-2.328;2024-01-25T05:00:48;28.90;;;5.90;;
24681;SDS011;12802;53.390;-2.328;2024-01-25T05:03:15;32.22;;;6.93;;
24681;SDS011;12802;53.390;-2.328;2024-01-25T05:05:42;39.40;;;7.07;;
24681;SDS011;12802;53.390;-2.328;2024-01-25T05:08:08;33.63;;;7.18;;
24681;SDS011;12802;53.390;-2.328;2024-01-25T05:10:34;35.47;;;6.43;;
24681;SDS011;12802;53.390;-2.328;2024-01-25T05:13:00;35.08;;;6.55;;
24681;SDS011;12802;53.390;-2.328;2024-01-25T05:15:26;38.45;;;6.70;;
24681;SDS011;12802;53.390;-2.328;2024-01-25T05:17:52;44.85;;;7.88;;
24681;SDS011;12802;53.390;-2.328;2024-01-25T05:20:18;29.38;;;5.88;;
24681;SDS011;12802;53.390;-2.328;2024-01-25T05:22:45;35.65;;;6.55;;
24681;SDS011;12802;53.390;-2.328;2024-01-25T05:25:11;29.65;;;6.47;;
24681;SDS011;12802;53.390;-2.328;2024-01-25T05:27:37;40.78;;;5.90;;
24681;SDS011;12802;53.390;-2.328;2024-01-25T05:30:04;34.30;;;7.00;;
24681;SDS011;12802;53.390;-2.328;2024-01-25T05:32:30;33.97;;;6.60;;
24681;SDS011;12802;53.390;-2.328;2024-01-25T05:34:56;45.70;;;7.07;;
24681;SDS011;12802;53.390;-2.328;2024-01-25T05:37:22;39.70;;;6.68;;
24681;SDS011;12802;53.390;-2.328;2024-01-25T05:39:48;39.83;;;7.07;;
24681;SDS011;12802;53.390;-2.328;2024-01-25T05:42:15;31.13;;;6.18;;
24681;SDS011;12802;53.390;-2.328;2024-01-25T05:44:41;39.08;;;7.47;;
24681;SDS011;12802;53.390;-2.328;2024-01-25T05:47:07;41.55;;;6.70;;
24681;SDS011;12802;53.390;-2.328;2024-01-25T05:49:33;35.35;;;6.68;;
24681;SDS011;12802;53.390;-2.328;2024-01-25T05:52:00;38.53;;;7.60;;
24681;SDS011;12802;53.390;-2.328;2024-01-25T05:54:26;34.70;;;6.20;;
24681;SDS011;12802;53.390;-2.328;2024-01-25T05:56:52;36.65;;;7.03;;
24681;SDS011;12802;53.390;-2.328;2024-01-25T05:59:18;35.72;;;7.85;;
24681;SDS011;12802;53.390;-2.328;2024-01-25T06:01:44;40.88;;;8.20;;
24681;SDS011;12802;53.390;-2.328;2024-01-25T06:04:11;37.33;;;7.32;;
24681;SDS011;12802;53.390;-2.328;2024-01-25T06:06:37;43.47;;;8.40;;
24681;SDS011;12802;53.390;-2.328;2024-01-25T06:09:03;47.08;;;7.65;;
24681;SDS011;12802;53.390;-2.328;2024-01-25T06:11:30;49.53;;;8.63;;
24681;SDS011;12802;53.390;-2.328;2024-01-25T06:13:58;44.30;;;8.70;;
24681;SDS011;12802;53.390;-2.328;2024-01-25T06:16:24;47.75;;;9.30;;
24681;SDS011;12802;53.390;-2.328;2024-01-25T06:18:51;55.60;;;9.55;;
24681;SDS011;12802;53.390;-2.328;2024-01-25T06:21:17;44.53;;;8.50;;
24681;SDS011;12802;53.390;-2.328;2024-01-25T06:23:43;54.97;;;9.75;;
24681;SDS011;12802;53.390;-2.328;2024-01-25T06:26:09;45.10;;;8.52;;
24681;SDS011;12802;53.390;-2.328;2024-01-25T06:28:35;54.67;;;9.73;;
24681;SDS011;12802;53.390;-2.328;2024-01-25T06:31:01;49.53;;;9.05;;
24681;SDS011;12802;53.390;-2.328;2024-01-25T06:33:27;49.88;;;8.63;;
24681;SDS011;12802;53.390;-2.328;2024-01-25T06:35:55;57.50;;;10.52;;
24681;SDS011;12802;53.390;-2.328;2024-01-25T06:38:21;40.55;;;7.82;;
24681;SDS011;12802;53.390;-2.328;2024-01-25T06:40:48;50.90;;;8.77;;
24681;SDS011;12802;53.390;-2.328;2024-01-25T06:43:14;46.33;;;8.63;;
24681;SDS011;12802;53.390;-2.328;2024-01-25T06:45:40;44.67;;;8.45;;
24681;SDS011;12802;53.390;-2.328;2024-01-25T06:48:07;43.17;;;9.52;;
24681;SDS011;12802;53.390;-2.328;2024-01-25T06:50:36;41.30;;;9.35;;
24681;SDS011;12802;53.390;-2.328;2024-01-25T06:53:02;50.10;;;9.43;;
24681;SDS011;12802;53.390;-2.328;2024-01-25T06:55:28;45.15;;;8.48;;
24681;SDS011;12802;53.390;-2.328;2024-01-25T06:57:54;43.30;;;7.93;;
24681;SDS011;12802;53.390;-2.328;2024-01-25T07:00:21;41.42;;;8.10;;
24681;SDS011;12802;53.390;-2.328;2024-01-25T07:02:47;36.03;;;7.63;;
24681;SDS011;12802;53.390;-2.328;2024-01-25T07:05:13;47.83;;;7.85;;
24681;SDS011;12802;53.390;-2.328;2024-01-25T07:07:40;36.15;;;7.15;;
24681;SDS011;12802;53.390;-2.328;2024-01-25T07:10:07;42.42;;;8.35;;
24681;SDS011;12802;53.390;-2.328;2024-01-25T07:12:33;37.92;;;7.13;;
24681;SDS011;12802;53.390;-2.328;2024-01-25T07:14:59;34.95;;;7.13;;
24681;SDS011;12802;53.390;-2.328;2024-01-25T07:17:25;30.55;;;6.50;;
24681;SDS011;12802;53.390;-2.328;2024-01-25T07:19:51;34.13;;;7.47;;
24681;SDS011;12802;53.390;-2.328;2024-01-25T07:22:17;26.20;;;6.72;;
24681;SDS011;12802;53.390;-2.328;2024-01-25T07:24:44;26.75;;;6.63;;
24681;SDS011;12802;53.390;-2.328;2024-01-25T07:27:10;24.30;;;5.22;;
24681;SDS011;12802;53.390;-2.328;2024-01-25T07:29:36;24.33;;;6.32;;
24681;SDS011;12802;53.390;-2.328;2024-01-25T07:32:03;19.30;;;4.75;;
24681;SDS011;12802;53.390;-2.328;2024-01-25T07:34:29;23.83;;;6.40;;
24681;SDS011;12802;53.390;-2.328;2024-01-25T07:36:55;22.50;;;5.80;;
24681;SDS011;12802;53.390;-2.328;2024-01-25T07:39:21;19.15;;;5.57;;
24681;SDS011;12802;53.390;-2.328;2024-01-25T07:41:47;21.05;;;6.85;;
24681;SDS011;12802;53.390;-2.328;2024-01-25T07:44:14;16.40;;;5.57;;
24681;SDS011;12802;53.390;-2.328;2024-01-25T07:46:40;22.90;;;6.15;;
24681;SDS011;12802;53.390;-2.328;2024-01-25T07:49:06;18.90;;;5.70;;
24681;SDS011;12802;53.390;-2.328;2024-01-25T07:51:32;20.13;;;5.95;;
24681;SDS011;12802;53.390;-2.328;2024-01-25T07:53:59;22.33;;;6.03;;
24681;SDS011;12802;53.390;-2.328;2024-01-25T07:56:25;22.80;;;6.07;;
24681;SDS011;12802;53.390;-2.328;2024-01-25T07:58:51;16.83;;;5.78;;
24681;SDS011;12802;53.390;-2.328;2024-01-25T08:01:18;18.35;;;5.60;;
24681;SDS011;12802;53.390;-2.328;2024-01-25T08:03:44;17.08;;;5.38;;
24681;SDS011;12802;53.390;-2.328;2024-01-25T08:06:10;19.55;;;5.47;;
24681;SDS011;12802;53.390;-2.328;2024-01-25T08:08:36;23.42;;;6.85;;
24681;SDS011;12802;53.390;-2.328;2024-01-25T08:11:02;21.83;;;5.65;;
24681;SDS011;12802;53.390;-2.328;2024-01-25T08:13:33;18.30;;;5.70;;
24681;SDS011;12802;53.390;-2.328;2024-01-25T08:15:59;17.08;;;5.47;;
24681;SDS011;12802;53.390;-2.328;2024-01-25T08:18:25;20.70;;;5.68;;
24681;SDS011;12802;53.390;-2.328;2024-01-25T08:20:54;18.45;;;5.50;;
24681;SDS011;12802;53.390;-2.328;2024-01-25T08:23:21;21.80;;;6.00;;
24681;SDS011;12802;53.390;-2.328;2024-01-25T08:25:47;14.88;;;5.82;;
24681;SDS011;12802;53.390;-2.328;2024-01-25T08:28:13;15.70;;;5.68;;
24681;SDS011;12802;53.390;-2.328;2024-01-25T08:30:40;17.67;;;5.57;;
24681;SDS011;12802;53.390;-2.328;2024-01-25T08:33:06;21.00;;;6.05;;
24681;SDS011;12802;53.390;-2.328;2024-01-25T08:35:32;21.38;;;6.22;;
24681;SDS011;12802;53.390;-2.328;2024-01-25T08:37:58;19.38;;;5.28;;
24681;SDS011;12802;53.390;-2.328;2024-01-25T08:40:24;20.90;;;6.85;;
24681;SDS011;12802;53.390;-2.328;2024-01-25T08:42:50;22.70;;;7.43;;
24681;SDS011;12802;53.390;-2.328;2024-01-25T08:45:16;20.67;;;6.55;;
24681;SDS011;12802;53.390;-2.328;2024-01-25T08:47:44;17.88;;;6.53;;
24681;SDS011;12802;53.390;-2.328;2024-01-25T08:50:11;20.13;;;7.22;;
24681;SDS011;12802;53.390;-2.328;2024-01-25T08:52:37;17.98;;;7.13;;
24681;SDS011;12802;53.390;-2.328;2024-01-25T08:55:06;22.52;;;8.35;;
24681;SDS011;12802;53.390;-2.328;2024-01-25T08:57:32;21.25;;;6.80;;
24681;SDS011;12802;53.390;-2.328;2024-01-25T08:59:58;13.23;;;5.97;;
24681;SDS011;12802;53.390;-2.328;2024-01-25T09:02:26;13.52;;;6.13;;
24681;SDS011;12802;53.390;-2.328;2024-01-25T09:04:54;19.55;;;6.95;;
24681;SDS011;12802;53.390;-2.328;2024-01-25T09:07:20;21.20;;;6.72;;
24681;SDS011;12802;53.390;-2.328;2024-01-25T09:09:47;17.23;;;6.65;;
24681;SDS011;12802;53.390;-2.328;2024-01-25T09:12:13;14.88;;;6.15;;
24681;SDS011;12802;53.390;-2.328;2024-01-25T09:14:39;19.48;;;6.88;;
24681;SDS011;12802;53.390;-2.328;2024-01-25T09:17:06;21.38;;;7.55;;
24681;SDS011;12802;53.390;-2.328;2024-01-25T09:19:32;25.48;;;7.85;;
24681;SDS011;12802;53.390;-2.328;2024-01-25T09:21:58;19.63;;;7.18;;
24681;SDS011;12802;53.390;-2.328;2024-01-25T09:24:29;21.80;;;7.43;;
24681;SDS011;12802;53.390;-2.328;2024-01-25T09:26:56;20.80;;;8.02;;
24681;SDS011;12802;53.390;-2.328;2024-01-25T09:29:24;18.20;;;7.38;;
24681;SDS011;12802;53.390;-2.328;2024-01-25T09:31:50;19.70;;;7.85;;
24681;SDS011;12802;53.390;-2.328;2024-01-25T09:34:16;20.58;;;8.20;;
24681;SDS011;12802;53.390;-2.328;2024-01-25T09:36:42;19.92;;;7.95;;
24681;SDS011;12802;53.390;-2.328;2024-01-25T09:39:09;18.02;;;8.00;;
24681;SDS011;12802;53.390;-2.328;2024-01-25T09:41:35;19.15;;;8.70;;
24681;SDS011;12802;53.390;-2.328;2024-01-25T09:44:01;16.33;;;7.97;;
24681;SDS011;12802;53.390;-2.328;2024-01-25T09:46:27;17.48;;;8.52;;
24681;SDS011;12802;53.390;-2.328;2024-01-25T09:48:53;14.00;;;8.48;;
24681;SDS011;12802;53.390;-2.328;2024-01-25T09:51:19;20.40;;;9.18;;
24681;SDS011;12802;53.390;-2.328;2024-01-25T09:53:45;19.92;;;9.02;;
24681;SDS011;12802;53.390;-2.328;2024-01-25T09:58:42;15.65;;;8.27;;
24681;SDS011;12802;53.390;-2.328;2024-01-25T10:01:10;18.20;;;8.70;;
24681;SDS011;12802;53.390;-2.328;2024-01-25T10:03:37;13.98;;;8.05;;
24681;SDS011;12802;53.390;-2.328;2024-01-25T10:06:05;17.30;;;8.32;;
24681;SDS011;12802;53.390;-2.328;2024-01-25T10:08:32;17.20;;;8.00;;
24681;SDS011;12802;53.390;-2.328;2024-01-25T10:11:01;15.55;;;8.40;;
24681;SDS011;12802;53.390;-2.328;2024-01-25T10:13:27;15.60;;;7.68;;
24681;SDS011;12802;53.390;-2.328;2024-01-25T10:15:57;14.13;;;8.25;;
24681;SDS011;12802;53.390;-2.328;2024-01-25T10:18:23;14.07;;;7.63;;
24681;SDS011;12802;53.390;-2.328;2024-01-25T10:20:53;19.10;;;7.30;;
24681;SDS011;12802;53.390;-2.328;2024-01-25T10:23:20;15.57;;;6.72;;
24681;SDS011;12802;53.390;-2.328;2024-01-25T10:25:50;15.30;;;7.80;;
24681;SDS011;12802;53.390;-2.328;2024-01-25T10:28:16;15.50;;;7.10;;
24681;SDS011;12802;53.390;-2.328;2024-01-25T10:30:43;12.82;;;8.07;;
24681;SDS011;12802;53.390;-2.328;2024-01-25T10:33:10;19.15;;;7.78;;
24681;SDS011;12802;53.390;-2.328;2024-01-25T10:35:37;12.98;;;7.82;;
24681;SDS011;12802;53.390;-2.328;2024-01-25T10:38:03;12.52;;;7.43;;
24681;SDS011;12802;53.390;-2.328;2024-01-25T10:40:30;14.52;;;7.15;;
24681;SDS011;12802;53.390;-2.328;2024-01-25T10:42:56;11.50;;;6.75;;
24681;SDS011;12802;53.390;-2.328;2024-01-25T10:45:22;14.57;;;7.22;;
24681;SDS011;12802;53.390;-2.328;2024-01-25T10:47:48;14.35;;;7.88;;
24681;SDS011;12802;53.390;-2.328;2024-01-25T10:50:18;14.25;;;7.60;;
24681;SDS011;12802;53.390;-2.328;2024-01-25T10:52:44;14.52;;;7.82;;
24681;SDS011;12802;53.390;-2.328;2024-01-25T10:55:11;16.80;;;7.97;;
24681;SDS011;12802;53.390;-2.328;2024-01-25T10:57:38;15.68;;;7.93;;
24681;SDS011;12802;53.390;-2.328;2024-01-25T11:00:05;17.65;;;7.47;;
24681;SDS011;12802;53.390;-2.328;2024-01-25T11:02:35;13.20;;;7.07;;
24681;SDS011;12802;53.390;-2.328;2024-01-25T11:05:01;12.05;;;6.70;;
24681;SDS011;12802;53.390;-2.328;2024-01-25T11:07:54;13.50;;;7.30;;
24681;SDS011;12802;53.390;-2.328;2024-01-25T11:10:22;16.10;;;7.55;;
24681;SDS011;12802;53.390;-2.328;2024-01-25T11:12:56;14.63;;;7.35;;
24681;SDS011;12802;53.390;-2.328;2024-01-25T11:15:24;14.77;;;7.22;;
24681;SDS011;12802;53.390;-2.328;2024-01-25T11:17:55;14.45;;;7.05;;
24681;SDS011;12802;53.390;-2.328;2024-01-25T11:20:22;13.50;;;7.28;;
24681;SDS011;12802;53.390;-2.328;2024-01-25T11:22:54;13.45;;;6.75;;
24681;SDS011;12802;53.390;-2.328;2024-01-25T11:25:21;10.20;;;6.40;;
24681;SDS011;12802;53.390;-2.328;2024-01-25T11:27:49;13.77;;;6.10;;
24681;SDS011;12802;53.390;-2.328;2024-01-25T11:30:17;10.68;;;6.05;;
24681;SDS011;12802;53.390;-2.328;2024-01-25T11:32:45;9.07;;;5.63;;
24681;SDS011;12802;53.390;-2.328;2024-01-25T11:35:12;9.35;;;5.47;;
24681;SDS011;12802;53.390;-2.328;2024-01-25T11:37:45;14.73;;;5.57;;
24681;SDS011;12802;53.390;-2.328;2024-01-25T11:40:15;8.77;;;5.07;;
24681;SDS011;12802;53.390;-2.328;2024-01-25T11:42:42;11.32;;;5.13;;
24681;SDS011;12802;53.390;-2.328;2024-01-25T11:45:12;10.10;;;4.50;;
24681;SDS011;12802;53.390;-2.328;2024-01-25T11:47:38;8.63;;;4.50;;
24681;SDS011;12802;53.390;-2.328;2024-01-25T11:50:05;10.27;;;4.97;;
24681;SDS011;12802;53.390;-2.328;2024-01-25T11:52:32;10.30;;;3.40;;
24681;SDS011;12802;53.390;-2.328;2024-01-25T11:55:01;9.02;;;3.35;;
24681;SDS011;12802;53.390;-2.328;2024-01-25T11:57:27;9.17;;;3.67;;
24681;SDS011;12802;53.390;-2.328;2024-01-25T11:59:54;9.10;;;3.42;;
24681;SDS011;12802;53.390;-2.328;2024-01-25T12:02:21;8.18;;;3.08;;
24681;SDS011;12802;53.390;-2.328;2024-01-25T12:04:47;9.00;;;2.97;;
24681;SDS011;12802;53.390;-2.328;2024-01-25T12:07:14;7.97;;;3.72;;
24681;SDS011;12802;53.390;-2.328;2024-01-25T12:09:40;10.05;;;3.70;;
24681;SDS011;12802;53.390;-2.328;2024-01-25T12:12:07;7.07;;;3.13;;
24681;SDS011;12802;53.390;-2.328;2024-01-25T12:14:34;10.55;;;3.60;;
24681;SDS011;12802;53.390;-2.328;2024-01-25T12:17:01;10.10;;;3.47;;
24681;SDS011;12802;53.390;-2.328;2024-01-25T12:19:29;7.00;;;3.50;;
24681;SDS011;12802;53.390;-2.328;2024-01-25T12:21:55;8.52;;;3.65;;
24681;SDS011;12802;53.390;-2.328;2024-01-25T12:24:21;8.70;;;3.38;;
24681;SDS011;12802;53.390;-2.328;2024-01-25T12:26:48;6.15;;;3.72;;
24681;SDS011;12802;53.390;-2.328;2024-01-25T12:29:14;9.45;;;3.97;;
24681;SDS011;12802;53.390;-2.328;2024-01-25T12:31:42;8.80;;;3.90;;
24681;SDS011;12802;53.390;-2.328;2024-01-25T12:34:14;7.13;;;3.30;;
24681;SDS011;12802;53.390;-2.328;2024-01-25T12:36:41;8.88;;;3.53;;
24681;SDS011;12802;53.390;-2.328;2024-01-25T12:39:07;6.28;;;3.38;;
24681;SDS011;12802;53.390;-2.328;2024-01-25T12:41:35;6.20;;;3.50;;
24681;SDS011;12802;53.390;-2.328;2024-01-25T12:44:01;6.82;;;3.33;;
24681;SDS011;12802;53.390;-2.328;2024-01-25T12:46:27;6.45;;;3.80;;
24681;SDS011;12802;53.390;-2.328;2024-01-25T12:48:53;5.85;;;3.30;;
24681;SDS011;12802;53.390;-2.328;2024-01-25T12:51:20;10.18;;;3.78;;
24681;SDS011;12802;53.390;-2.328;2024-01-25T12:53:47;7.00;;;3.42;;
24681;SDS011;12802;53.390;-2.328;2024-01-25T12:56:13;7.65;;;3.90;;
24681;SDS011;12802;53.390;-2.328;2024-01-25T12:58:39;6.43;;;3.05;;
24681;SDS011;12802;53.390;-2.328;2024-01-25T13:01:06;6.05;;;3.13;;
24681;SDS011;12802;53.390;-2.328;2024-01-25T13:03:32;10.70;;;3.17;;
24681;SDS011;12802;53.390;-2.328;2024-01-25T13:05:59;6.75;;;2.90;;
24681;SDS011;12802;53.390;-2.328;2024-01-25T13:08:28;6.63;;;2.60;;
24681;SDS011;12802;53.390;-2.328;2024-01-25T13:10:54;8.07;;;2.70;;
24681;SDS011;12802;53.390;-2.328;2024-01-25T13:13:20;4.53;;;2.40;;
24681;SDS011;12802;53.390;-2.328;2024-01-25T13:15:46;3.53;;;2.05;;
24681;SDS011;12802;53.390;-2.328;2024-01-25T13:18:13;5.88;;;1.92;;
24681;SDS011;12802;53.390;-2.328;2024-01-25T13:20:39;6.53;;;2.30;;
24681;SDS011;12802;53.390;-2.328;2024-01-25T13:23:05;3.35;;;1.88;;
24681;SDS011;12802;53.390;-2.328;2024-01-25T13:25:33;3.60;;;1.50;;
24681;SDS011;12802;53.390;-2.328;2024-01-25T13:27:59;8.65;;;2.38;;
24681;SDS011;12802;53.390;-2.328;2024-01-25T13:30:25;4.75;;;1.73;;
24681;SDS011;12802;53.390;-2.328;2024-01-25T13:32:51;5.90;;;1.70;;
24681;SDS011;12802;53.390;-2.328;2024-01-25T13:35:18;2.88;;;1.63;;
24681;SDS011;12802;53.390;-2.328;2024-01-25T13:37:44;3.88;;;1.42;;
24681;SDS011;12802;53.390;-2.328;2024-01-25T13:40:10;3.30;;;1.80;;
24681;SDS011;12802;53.390;-2.328;2024-01-25T13:42:36;5.05;;;1.55;;
24681;SDS011;12802;53.390;-2.328;2024-01-25T13:45:02;3.65;;;1.88;;
24681;SDS011;12802;53.390;-2.328;2024-01-25T13:47:29;3.67;;;2.15;;
24681;SDS011;12802;53.390;-2.328;2024-01-25T13:49:55;5.00;;;1.92;;
24681;SDS011;12802;53.390;-2.328;2024-01-25T13:52:21;5.72;;;1.90;;
24681;SDS011;12802;53.390;-2.328;2024-01-25T13:54:47;6.05;;;2.03;;
24681;SDS011;12802;53.390;-2.328;2024-01-25T13:57:17;3.38;;;1.63;;
24681;SDS011;12802;53.390;-2.328;2024-01-25T13:59:48;4.20;;;1.83;;
24681;SDS011;12802;53.390;-2.328;2024-01-25T14:02:14;3.75;;;1.77;;
24681;SDS011;12802;53.390;-2.328;2024-01-25T14:04:41;5.55;;;2.10;;
24681;SDS011;12802;53.390;-2.328;2024-01-25T14:07:07;3.88;;;1.83;;
24681;SDS011;12802;53.390;-2.328;2024-01-25T14:09:33;4.93;;;1.75;;
24681;SDS011;12802;53.390;-2.328;2024-01-25T14:11:59;4.68;;;2.17;;
24681;SDS011;12802;53.390;-2.328;2024-01-25T14:14:25;4.43;;;1.85;;
24681;SDS011;12802;53.390;-2.328;2024-01-25T14:16:52;5.80;;;1.98;;
24681;SDS011;12802;53.390;-2.328;2024-01-25T14:19:18;3.38;;;2.00;;
24681;SDS011;12802;53.390;-2.328;2024-01-25T14:21:45;4.57;;;1.80;;
24681;SDS011;12802;53.390;-2.328;2024-01-25T14:24:12;5.20;;;1.60;;
24681;SDS011;12802;53.390;-2.328;2024-01-25T14:26:39;5.78;;;2.00;;